createdAt,value
2018-09-19T00:09:36.122Z,0
2018-09-19T00:19:51.356Z,0
2018-09-19T00:30:06.178Z,0
2018-09-19T00:40:21.650Z,0
2018-09-19T00:50:36.855Z,0
2018-09-19T01:00:52.550Z,0
2018-09-19T01:11:07.742Z,0
2018-09-19T01:21:22.074Z,0
2018-09-19T01:31:37.625Z,0
2018-09-19T01:41:51.710Z,0
2018-09-19T01:52:05.795Z,0
2018-09-19T02:02:21.432Z,0
2018-09-19T02:12:36.965Z,0
2018-09-19T02:22:50.404Z,0
2018-09-19T02:33:04.486Z,0
2018-09-19T02:43:19.266Z,0
2018-09-19T02:53:33.895Z,0
2018-09-19T03:03:48.447Z,0
2018-09-19T03:14:03.980Z,0
2018-09-19T03:24:19.452Z,0
2018-09-19T03:34:34.846Z,0
2018-09-19T03:44:48.973Z,0
2018-09-19T03:55:03.603Z,0
2018-09-19T04:05:18.000Z,0
2018-09-19T04:15:31.949Z,0
2018-09-19T04:25:46.627Z,0
2018-09-19T04:36:00.843Z,0
2018-09-19T04:46:16.001Z,0
2018-09-19T04:56:29.804Z,0
2018-09-19T05:06:45.416Z,5
2018-09-19T05:16:59.326Z,15
2018-09-19T05:27:14.107Z,25
2018-09-19T05:37:29.138Z,40
2018-09-19T05:47:43.074Z,60
2018-09-19T05:57:57.785Z,85
2018-09-19T06:08:11.757Z,105
2018-09-19T06:18:26.561Z,125
2018-09-19T06:28:40.675Z,145
2018-09-19T06:38:56.288Z,160
2018-09-19T06:49:11.444Z,180
2018-09-19T06:59:25.290Z,210
2018-09-19T07:09:40.673Z,380
2018-09-19T07:19:55.869Z,475
2018-09-19T07:30:11.207Z,510
2018-09-19T07:40:26.672Z,555
2018-09-19T07:50:41.995Z,525
2018-09-19T08:00:57.221Z,700
2018-09-19T08:11:12.135Z,745
2018-09-19T08:21:27.876Z,720
2018-09-19T08:31:43.202Z,815
2018-09-19T08:41:58.291Z,880
2018-09-19T08:52:12.290Z,940
2018-09-19T09:02:27.929Z,965
2018-09-19T09:12:43.296Z,990
2018-09-19T09:22:57.316Z,1000
2018-09-19T09:33:12.410Z,940
2018-09-19T09:43:27.396Z,825
2018-09-19T09:53:42.737Z,1070
2018-09-19T10:03:57.117Z,1330
2018-09-19T10:14:12.196Z,1485
2018-09-19T10:24:26.919Z,1545
2018-09-19T10:34:40.860Z,1620
2018-09-19T10:44:55.135Z,940
2018-09-19T10:55:09.943Z,700
2018-09-19T11:05:25.404Z,530
2018-09-19T11:15:41.409Z,1240
2018-09-19T11:25:56.907Z,545
2018-09-19T11:36:11.843Z,1290
2018-09-19T11:56:40.571Z,470
2018-09-19T12:06:54.942Z,425
2018-09-19T12:17:10.018Z,1285
2018-09-19T12:27:24.381Z,685
2018-09-19T12:37:38.795Z,510
2018-09-19T12:47:53.714Z,1265
2018-09-19T12:58:08.216Z,1040
2018-09-19T13:08:22.292Z,1140
2018-09-19T13:18:36.619Z,1345
2018-09-19T13:28:51.353Z,1025
2018-09-19T13:39:06.123Z,1185
2018-09-19T13:49:21.605Z,1095
2018-09-19T13:59:36.179Z,630
2018-09-19T14:09:51.345Z,1030
2018-09-19T14:20:06.818Z,1060
2018-09-19T14:30:21.303Z,990
2018-09-19T14:40:35.954Z,605
2018-09-19T14:50:51.224Z,750
2018-09-19T15:01:06.113Z,850
2018-09-19T15:11:21.181Z,845
2018-09-19T15:21:35.359Z,320
2018-09-19T15:31:49.535Z,635
2018-09-19T15:42:03.414Z,245
2018-09-19T15:52:18.232Z,560
2018-09-19T16:02:33.981Z,500
2018-09-19T16:12:48.317Z,445
2018-09-19T16:23:02.196Z,330
2018-09-19T16:33:18.105Z,215
2018-09-19T16:43:32.646Z,140
2018-09-19T16:53:46.673Z,70
2018-09-19T17:04:01.461Z,50
2018-09-19T17:14:16.874Z,35
2018-09-19T17:24:32.668Z,20
2018-09-19T17:34:47.074Z,10
2018-09-19T17:45:01.797Z,0
2018-09-19T17:55:16.171Z,0
2018-09-19T18:05:31.285Z,0
2018-09-19T18:15:46.788Z,0
2018-09-19T18:26:00.963Z,0
2018-09-19T18:36:16.530Z,0
2018-09-19T18:46:31.954Z,0
2018-09-19T18:56:46.706Z,0
2018-09-19T19:07:02.392Z,0
2018-09-19T19:17:18.050Z,0
2018-09-19T19:27:33.742Z,0
2018-09-19T19:37:49.096Z,0
2018-09-19T19:48:04.382Z,0
2018-09-19T19:58:18.453Z,0
2018-09-19T20:08:33.334Z,0
2018-09-19T20:18:48.148Z,0
2018-09-19T20:29:03.704Z,0
2018-09-19T20:39:19.124Z,0
2018-09-19T20:49:33.228Z,0
2018-09-19T20:59:48.840Z,0
2018-09-19T21:10:04.587Z,0
2018-09-19T21:20:19.590Z,0
2018-09-19T21:30:33.445Z,0
2018-09-19T21:40:47.359Z,0
2018-09-19T21:51:02.468Z,0
2018-09-19T22:01:16.905Z,0
2018-09-19T22:11:30.664Z,0
2018-09-19T22:21:44.485Z,0
2018-09-19T22:31:58.771Z,0
2018-09-19T22:42:14.547Z,0
2018-09-19T22:52:28.081Z,0
2018-09-19T23:02:41.916Z,0
2018-09-19T23:12:57.294Z,0
2018-09-19T23:23:12.380Z,0
2018-09-19T23:33:27.804Z,0
2018-09-19T23:43:43.563Z,0
2018-09-19T23:53:57.144Z,0
